sensor_id;sensor_type;location;lat;lon;timestamp;P1;durP1;ratioP1;P2;durP2;ratioP2
73428;SDS011;61643;49.564;17.412;2022-12-18T00:01:34;39.78;;;13.07;;
73428;SDS011;61643;49.564;17.412;2022-12-18T00:04:01;33.25;;;10.35;;
73428;SDS011;61643;49.564;17.412;2022-12-18T00:08:55;25.52;;;8.27;;
73428;SDS011;61643;49.564;17.412;2022-12-18T00:11:23;27.77;;;9.18;;
73428;SDS011;61643;49.564;17.412;2022-12-18T00:13:51;27.15;;;8.98;;
73428;SDS011;61643;49.564;17.412;2022-12-18T00:16:19;28.48;;;9.05;;
73428;SDS011;61643;49.564;17.412;2022-12-18T00:18:47;28.35;;;9.82;;
73428;SDS011;61643;49.564;17.412;2022-12-18T00:21:13;29.42;;;9.43;;
73428;SDS011;61643;49.564;17.412;2022-12-18T00:23:38;30.35;;;10.23;;
73428;SDS011;61643;49.564;17.412;2022-12-18T00:26:06;31.58;;;9.13;;
73428;SDS011;61643;49.564;17.412;2022-12-18T00:28:35;22.98;;;8.23;;
73428;SDS011;61643;49.564;17.412;2022-12-18T00:31:05;27.13;;;8.93;;
73428;SDS011;61643;49.564;17.412;2022-12-18T00:33:32;37.85;;;10.63;;
73428;SDS011;61643;49.564;17.412;2022-12-18T00:36:02;32.28;;;9.48;;
73428;SDS011;61643;49.564;17.412;2022-12-18T00:38:28;29.90;;;9.20;;
73428;SDS011;61643;49.564;17.412;2022-12-18T00:40:53;33.58;;;10.05;;
73428;SDS011;61643;49.564;17.412;2022-12-18T00:43:18;31.30;;;9.37;;
73428;SDS011;61643;49.564;17.412;2022-12-18T00:45:44;27.00;;;9.20;;
73428;SDS011;61643;49.564;17.412;2022-12-18T00:48:10;24.65;;;8.90;;
73428;SDS011;61643;49.564;17.412;2022-12-18T00:50:35;31.70;;;10.47;;
73428;SDS011;61643;49.564;17.412;2022-12-18T00:53:01;30.60;;;8.93;;
73428;SDS011;61643;49.564;17.412;2022-12-18T00:55:26;27.70;;;9.30;;
73428;SDS011;61643;49.564;17.412;2022-12-18T00:57:51;30.10;;;9.77;;
73428;SDS011;61643;49.564;17.412;2022-12-18T01:00:17;27.08;;;8.98;;
73428;SDS011;61643;49.564;17.412;2022-12-18T01:02:43;29.77;;;9.02;;
73428;SDS011;61643;49.564;17.412;2022-12-18T01:05:09;25.88;;;7.80;;
73428;SDS011;61643;49.564;17.412;2022-12-18T01:07:35;26.15;;;8.57;;
73428;SDS011;61643;49.564;17.412;2022-12-18T01:10:01;21.77;;;7.00;;
73428;SDS011;61643;49.564;17.412;2022-12-18T01:12:26;21.00;;;8.07;;
73428;SDS011;61643;49.564;17.412;2022-12-18T01:14:52;23.90;;;7.93;;
73428;SDS011;61643;49.564;17.412;2022-12-18T01:17:17;34.50;;;9.73;;
73428;SDS011;61643;49.564;17.412;2022-12-18T01:19:42;28.27;;;8.27;;
73428;SDS011;61643;49.564;17.412;2022-12-18T01:22:08;32.60;;;10.03;;
73428;SDS011;61643;49.564;17.412;2022-12-18T01:24:33;35.13;;;9.68;;
73428;SDS011;61643;49.564;17.412;2022-12-18T01:26:59;34.10;;;10.73;;
73428;SDS011;61643;49.564;17.412;2022-12-18T01:29:24;31.20;;;10.20;;
73428;SDS011;61643;49.564;17.412;2022-12-18T01:31:49;36.07;;;11.63;;
73428;SDS011;61643;49.564;17.412;2022-12-18T01:34:15;46.30;;;14.53;;
73428;SDS011;61643;49.564;17.412;2022-12-18T01:36:40;39.30;;;12.25;;
73428;SDS011;61643;49.564;17.412;2022-12-18T01:39:07;78.27;;;20.40;;
73428;SDS011;61643;49.564;17.412;2022-12-18T01:41:35;61.85;;;18.80;;
73428;SDS011;61643;49.564;17.412;2022-12-18T01:44:51;68.07;;;21.10;;
73428;SDS011;61643;49.564;17.412;2022-12-18T01:47:25;58.95;;;17.05;;
73428;SDS011;61643;49.564;17.412;2022-12-18T01:49:53;72.90;;;20.95;;
73428;SDS011;61643;49.564;17.412;2022-12-18T01:52:20;65.20;;;17.38;;
73428;SDS011;61643;49.564;17.412;2022-12-18T01:54:48;70.60;;;20.85;;
73428;SDS011;61643;49.564;17.412;2022-12-18T01:57:14;69.05;;;18.20;;
73428;SDS011;61643;49.564;17.412;2022-12-18T01:59:40;68.47;;;18.17;;
73428;SDS011;61643;49.564;17.412;2022-12-18T02:02:08;51.05;;;13.40;;
73428;SDS011;61643;49.564;17.412;2022-12-18T02:04:33;62.80;;;19.48;;
73428;SDS011;61643;49.564;17.412;2022-12-18T02:07:24;67.83;;;17.93;;
73428;SDS011;61643;49.564;17.412;2022-12-18T02:12:38;54.72;;;15.27;;
73428;SDS011;61643;49.564;17.412;2022-12-18T02:15:13;60.10;;;18.13;;
73428;SDS011;61643;49.564;17.412;2022-12-18T02:17:44;47.22;;;13.88;;
73428;SDS011;61643;49.564;17.412;2022-12-18T02:28:35;56.08;;;15.95;;
73428;SDS011;61643;49.564;17.412;2022-12-18T02:31:06;40.72;;;13.73;;
73428;SDS011;61643;49.564;17.412;2022-12-18T02:33:36;34.13;;;8.50;;
73428;SDS011;61643;49.564;17.412;2022-12-18T02:36:03;37.28;;;11.30;;
73428;SDS011;61643;49.564;17.412;2022-12-18T02:38:30;49.08;;;16.17;;
73428;SDS011;61643;49.564;17.412;2022-12-18T02:40:57;46.15;;;14.38;;
73428;SDS011;61643;49.564;17.412;2022-12-18T02:43:23;51.25;;;13.63;;
73428;SDS011;61643;49.564;17.412;2022-12-18T02:45:56;53.42;;;14.85;;
73428;SDS011;61643;49.564;17.412;2022-12-18T02:48:23;50.45;;;14.32;;
73428;SDS011;61643;49.564;17.412;2022-12-18T02:51:02;51.25;;;13.30;;
73428;SDS011;61643;49.564;17.412;2022-12-18T02:56:35;50.47;;;13.38;;
73428;SDS011;61643;49.564;17.412;2022-12-18T02:59:09;52.60;;;14.77;;
73428;SDS011;61643;49.564;17.412;2022-12-18T03:02:12;44.00;;;14.07;;
73428;SDS011;61643;49.564;17.412;2022-12-18T03:04:51;39.47;;;12.77;;
73428;SDS011;61643;49.564;17.412;2022-12-18T03:07:41;46.15;;;11.20;;
73428;SDS011;61643;49.564;17.412;2022-12-18T03:10:14;34.20;;;11.40;;
73428;SDS011;61643;49.564;17.412;2022-12-18T03:12:47;39.35;;;13.57;;
73428;SDS011;61643;49.564;17.412;2022-12-18T03:15:21;38.08;;;12.68;;
73428;SDS011;61643;49.564;17.412;2022-12-18T03:17:52;48.35;;;14.23;;
73428;SDS011;61643;49.564;17.412;2022-12-18T03:20:21;47.45;;;12.77;;
73428;SDS011;61643;49.564;17.412;2022-12-18T03:22:51;49.85;;;14.35;;
73428;SDS011;61643;49.564;17.412;2022-12-18T03:25:22;55.42;;;15.98;;
73428;SDS011;61643;49.564;17.412;2022-12-18T03:27:51;46.40;;;12.40;;
73428;SDS011;61643;49.564;17.412;2022-12-18T03:30:21;42.92;;;12.73;;
73428;SDS011;61643;49.564;17.412;2022-12-18T03:32:52;48.50;;;14.10;;
73428;SDS011;61643;49.564;17.412;2022-12-18T03:35:22;42.70;;;14.60;;
73428;SDS011;61643;49.564;17.412;2022-12-18T03:38:02;42.92;;;13.13;;
73428;SDS011;61643;49.564;17.412;2022-12-18T03:40:50;42.97;;;12.63;;
73428;SDS011;61643;49.564;17.412;2022-12-18T03:48:58;36.83;;;10.95;;
73428;SDS011;61643;49.564;17.412;2022-12-18T03:54:00;52.65;;;14.98;;
73428;SDS011;61643;49.564;17.412;2022-12-18T03:56:29;49.38;;;15.55;;
73428;SDS011;61643;49.564;17.412;2022-12-18T03:58:57;46.40;;;12.15;;
73428;SDS011;61643;49.564;17.412;2022-12-18T04:01:28;47.70;;;13.68;;
73428;SDS011;61643;49.564;17.412;2022-12-18T04:03:58;52.53;;;14.63;;
73428;SDS011;61643;49.564;17.412;2022-12-18T04:06:26;43.03;;;11.57;;
73428;SDS011;61643;49.564;17.412;2022-12-18T04:08:52;43.92;;;13.25;;
73428;SDS011;61643;49.564;17.412;2022-12-18T04:11:18;41.75;;;14.20;;
73428;SDS011;61643;49.564;17.412;2022-12-18T04:13:43;39.20;;;13.67;;
73428;SDS011;61643;49.564;17.412;2022-12-18T04:16:09;47.88;;;13.98;;
73428;SDS011;61643;49.564;17.412;2022-12-18T04:18:35;49.35;;;14.20;;
73428;SDS011;61643;49.564;17.412;2022-12-18T04:21:01;43.97;;;12.45;;
73428;SDS011;61643;49.564;17.412;2022-12-18T04:23:27;39.55;;;12.18;;
73428;SDS011;61643;49.564;17.412;2022-12-18T04:25:53;45.30;;;13.20;;
73428;SDS011;61643;49.564;17.412;2022-12-18T04:28:18;44.83;;;12.82;;
73428;SDS011;61643;49.564;17.412;2022-12-18T04:30:44;47.83;;;13.73;;
73428;SDS011;61643;49.564;17.412;2022-12-18T04:33:10;48.37;;;15.60;;
73428;SDS011;61643;49.564;17.412;2022-12-18T04:35:37;35.35;;;11.55;;
73428;SDS011;61643;49.564;17.412;2022-12-18T04:38:03;40.70;;;12.23;;
73428;SDS011;61643;49.564;17.412;2022-12-18T04:40:31;41.63;;;12.20;;
73428;SDS011;61643;49.564;17.412;2022-12-18T04:42:56;47.03;;;14.73;;
73428;SDS011;61643;49.564;17.412;2022-12-18T04:45:22;41.93;;;12.43;;
73428;SDS011;61643;49.564;17.412;2022-12-18T04:47:47;46.67;;;13.30;;
73428;SDS011;61643;49.564;17.412;2022-12-18T04:50:12;30.73;;;9.03;;
73428;SDS011;61643;49.564;17.412;2022-12-18T04:52:38;32.17;;;11.93;;
73428;SDS011;61643;49.564;17.412;2022-12-18T04:55:03;52.77;;;14.23;;
73428;SDS011;61643;49.564;17.412;2022-12-18T04:57:29;36.97;;;10.75;;
73428;SDS011;61643;49.564;17.412;2022-12-18T04:59:54;46.63;;;12.23;;
73428;SDS011;61643;49.564;17.412;2022-12-18T05:02:19;47.97;;;13.20;;
73428;SDS011;61643;49.564;17.412;2022-12-18T05:04:45;41.20;;;12.50;;
73428;SDS011;61643;49.564;17.412;2022-12-18T05:07:10;42.33;;;13.00;;
73428;SDS011;61643;49.564;17.412;2022-12-18T05:09:35;48.33;;;12.53;;
73428;SDS011;61643;49.564;17.412;2022-12-18T05:12:01;42.83;;;12.07;;
73428;SDS011;61643;49.564;17.412;2022-12-18T05:14:26;29.77;;;9.83;;
73428;SDS011;61643;49.564;17.412;2022-12-18T05:16:54;36.45;;;10.90;;
73428;SDS011;61643;49.564;17.412;2022-12-18T05:19:19;38.50;;;11.10;;
73428;SDS011;61643;49.564;17.412;2022-12-18T05:21:44;40.53;;;11.60;;
73428;SDS011;61643;49.564;17.412;2022-12-18T05:24:10;42.63;;;10.87;;
73428;SDS011;61643;49.564;17.412;2022-12-18T05:26:35;39.47;;;12.70;;
73428;SDS011;61643;49.564;17.412;2022-12-18T05:29:00;42.17;;;12.87;;
73428;SDS011;61643;49.564;17.412;2022-12-18T05:31:26;44.33;;;13.03;;
73428;SDS011;61643;49.564;17.412;2022-12-18T05:33:51;39.37;;;12.23;;
73428;SDS011;61643;49.564;17.412;2022-12-18T05:36:16;39.87;;;11.07;;
73428;SDS011;61643;49.564;17.412;2022-12-18T05:38:42;39.92;;;12.23;;
73428;SDS011;61643;49.564;17.412;2022-12-18T05:41:07;45.33;;;12.83;;
73428;SDS011;61643;49.564;17.412;2022-12-18T05:43:34;36.47;;;11.15;;
73428;SDS011;61643;49.564;17.412;2022-12-18T05:46:05;40.95;;;11.68;;
73428;SDS011;61643;49.564;17.412;2022-12-18T05:48:31;37.83;;;11.48;;
73428;SDS011;61643;49.564;17.412;2022-12-18T05:51:02;36.80;;;11.77;;
73428;SDS011;61643;49.564;17.412;2022-12-18T05:53:32;34.03;;;9.02;;
73428;SDS011;61643;49.564;17.412;2022-12-18T05:55:59;27.02;;;8.68;;
73428;SDS011;61643;49.564;17.412;2022-12-18T05:58:26;37.47;;;10.40;;
73428;SDS011;61643;49.564;17.412;2022-12-18T06:00:51;33.27;;;9.67;;
73428;SDS011;61643;49.564;17.412;2022-12-18T06:03:17;21.63;;;7.00;;
73428;SDS011;61643;49.564;17.412;2022-12-18T06:05:43;22.10;;;6.43;;
73428;SDS011;61643;49.564;17.412;2022-12-18T06:08:10;21.45;;;7.82;;
73428;SDS011;61643;49.564;17.412;2022-12-18T06:10:37;17.08;;;7.07;;
73428;SDS011;61643;49.564;17.412;2022-12-18T06:13:03;16.50;;;5.03;;
73428;SDS011;61643;49.564;17.412;2022-12-18T06:15:28;20.20;;;6.88;;
73428;SDS011;61643;49.564;17.412;2022-12-18T06:17:54;44.33;;;15.37;;
73428;SDS011;61643;49.564;17.412;2022-12-18T06:20:19;38.07;;;12.03;;
73428;SDS011;61643;49.564;17.412;2022-12-18T06:22:44;26.60;;;8.33;;
73428;SDS011;61643;49.564;17.412;2022-12-18T06:25:10;26.92;;;8.75;;
73428;SDS011;61643;49.564;17.412;2022-12-18T06:27:35;22.67;;;8.70;;
73428;SDS011;61643;49.564;17.412;2022-12-18T06:30:01;18.98;;;6.80;;
73428;SDS011;61643;49.564;17.412;2022-12-18T06:32:27;27.35;;;8.38;;
73428;SDS011;61643;49.564;17.412;2022-12-18T06:34:52;33.67;;;11.10;;
73428;SDS011;61643;49.564;17.412;2022-12-18T06:37:18;33.40;;;11.30;;
73428;SDS011;61643;49.564;17.412;2022-12-18T06:39:44;26.70;;;9.43;;
73428;SDS011;61643;49.564;17.412;2022-12-18T06:42:09;36.03;;;10.83;;
73428;SDS011;61643;49.564;17.412;2022-12-18T06:44:34;33.80;;;9.70;;
73428;SDS011;61643;49.564;17.412;2022-12-18T06:47:00;31.90;;;9.50;;
73428;SDS011;61643;49.564;17.412;2022-12-18T06:49:25;34.17;;;10.93;;
73428;SDS011;61643;49.564;17.412;2022-12-18T06:51:51;31.57;;;9.87;;
73428;SDS011;61643;49.564;17.412;2022-12-18T06:54:17;37.92;;;9.70;;
73428;SDS011;61643;49.564;17.412;2022-12-18T06:56:44;37.97;;;10.88;;
73428;SDS011;61643;49.564;17.412;2022-12-18T06:59:10;34.63;;;10.32;;
73428;SDS011;61643;49.564;17.412;2022-12-18T07:01:35;32.17;;;9.17;;
73428;SDS011;61643;49.564;17.412;2022-12-18T07:04:01;33.00;;;9.83;;
73428;SDS011;61643;49.564;17.412;2022-12-18T07:06:26;38.87;;;11.87;;
73428;SDS011;61643;49.564;17.412;2022-12-18T07:08:52;39.37;;;10.70;;
73428;SDS011;61643;49.564;17.412;2022-12-18T07:11:18;36.28;;;11.10;;
73428;SDS011;61643;49.564;17.412;2022-12-18T07:13:44;40.17;;;12.15;;
73428;SDS011;61643;49.564;17.412;2022-12-18T07:16:11;38.83;;;12.60;;
73428;SDS011;61643;49.564;17.412;2022-12-18T07:18:41;27.23;;;9.30;;
73428;SDS011;61643;49.564;17.412;2022-12-18T07:21:08;48.15;;;13.27;;
73428;SDS011;61643;49.564;17.412;2022-12-18T07:23:36;38.28;;;11.00;;
73428;SDS011;61643;49.564;17.412;2022-12-18T07:26:02;43.30;;;12.63;;
73428;SDS011;61643;49.564;17.412;2022-12-18T07:28:32;44.67;;;13.93;;
73428;SDS011;61643;49.564;17.412;2022-12-18T07:31:01;44.92;;;13.63;;
73428;SDS011;61643;49.564;17.412;2022-12-18T07:33:29;38.85;;;12.00;;
73428;SDS011;61643;49.564;17.412;2022-12-18T07:35:55;43.57;;;12.00;;
73428;SDS011;61643;49.564;17.412;2022-12-18T07:38:20;35.27;;;9.87;;
73428;SDS011;61643;49.564;17.412;2022-12-18T07:40:46;37.72;;;11.00;;
73428;SDS011;61643;49.564;17.412;2022-12-18T07:43:11;36.03;;;10.50;;
73428;SDS011;61643;49.564;17.412;2022-12-18T07:45:36;42.60;;;11.10;;
73428;SDS011;61643;49.564;17.412;2022-12-18T07:48:02;35.53;;;10.90;;
73428;SDS011;61643;49.564;17.412;2022-12-18T07:50:27;39.07;;;10.87;;
73428;SDS011;61643;49.564;17.412;2022-12-18T07:52:52;34.03;;;10.33;;
73428;SDS011;61643;49.564;17.412;2022-12-18T07:55:18;36.43;;;10.67;;
73428;SDS011;61643;49.564;17.412;2022-12-18T07:57:43;24.53;;;7.30;;
73428;SDS011;61643;49.564;17.412;2022-12-18T08:00:08;30.07;;;8.83;;
73428;SDS011;61643;49.564;17.412;2022-12-18T08:02:34;34.97;;;10.70;;
73428;SDS011;61643;49.564;17.412;2022-12-18T08:04:59;29.93;;;9.03;;
73428;SDS011;61643;49.564;17.412;2022-12-18T08:07:25;25.30;;;8.23;;
73428;SDS011;61643;49.564;17.412;2022-12-18T08:09:50;38.77;;;11.97;;
73428;SDS011;61643;49.564;17.412;2022-12-18T08:12:16;39.00;;;11.43;;
73428;SDS011;61643;49.564;17.412;2022-12-18T08:14:41;27.20;;;8.10;;
73428;SDS011;61643;49.564;17.412;2022-12-18T08:17:06;25.37;;;7.73;;
73428;SDS011;61643;49.564;17.412;2022-12-18T08:19:32;31.57;;;9.87;;
73428;SDS011;61643;49.564;17.412;2022-12-18T08:21:57;22.98;;;7.72;;
73428;SDS011;61643;49.564;17.412;2022-12-18T08:24:22;27.80;;;9.87;;
73428;SDS011;61643;49.564;17.412;2022-12-18T08:26:48;36.33;;;10.33;;
73428;SDS011;61643;49.564;17.412;2022-12-18T08:29:13;35.33;;;9.95;;
73428;SDS011;61643;49.564;17.412;2022-12-18T08:31:39;32.30;;;9.43;;
73428;SDS011;61643;49.564;17.412;2022-12-18T08:34:04;26.07;;;7.77;;
73428;SDS011;61643;49.564;17.412;2022-12-18T08:36:30;32.75;;;9.07;;
73428;SDS011;61643;49.564;17.412;2022-12-18T08:38:56;29.70;;;7.65;;
73428;SDS011;61643;49.564;17.412;2022-12-18T08:41:22;31.23;;;8.57;;
73428;SDS011;61643;49.564;17.412;2022-12-18T08:43:47;37.33;;;10.93;;
73428;SDS011;61643;49.564;17.412;2022-12-18T08:46:38;26.90;;;7.22;;
73428;SDS011;61643;49.564;17.412;2022-12-18T08:49:05;26.15;;;8.13;;
73428;SDS011;61643;49.564;17.412;2022-12-18T08:51:32;31.83;;;10.10;;
73428;SDS011;61643;49.564;17.412;2022-12-18T08:53:57;34.10;;;9.45;;
73428;SDS011;61643;49.564;17.412;2022-12-18T08:56:23;29.80;;;9.70;;
73428;SDS011;61643;49.564;17.412;2022-12-18T08:58:51;29.93;;;8.70;;
73428;SDS011;61643;49.564;17.412;2022-12-18T09:01:18;31.60;;;9.18;;
73428;SDS011;61643;49.564;17.412;2022-12-18T09:03:46;39.42;;;11.30;;
73428;SDS011;61643;49.564;17.412;2022-12-18T09:06:15;29.35;;;9.98;;
73428;SDS011;61643;49.564;17.412;2022-12-18T09:08:43;47.80;;;15.45;;
73428;SDS011;61643;49.564;17.412;2022-12-18T09:11:18;40.55;;;12.82;;
73428;SDS011;61643;49.564;17.412;2022-12-18T09:13:48;27.52;;;9.57;;
73428;SDS011;61643;49.564;17.412;2022-12-18T09:16:13;22.47;;;7.30;;
73428;SDS011;61643;49.564;17.412;2022-12-18T09:18:39;20.33;;;7.00;;
73428;SDS011;61643;49.564;17.412;2022-12-18T09:21:18;32.87;;;11.17;;
73428;SDS011;61643;49.564;17.412;2022-12-18T09:23:48;27.35;;;7.80;;
73428;SDS011;61643;49.564;17.412;2022-12-18T09:26:17;28.20;;;8.43;;
73428;SDS011;61643;49.564;17.412;2022-12-18T09:28:42;21.40;;;6.75;;
73428;SDS011;61643;49.564;17.412;2022-12-18T09:31:08;34.35;;;11.02;;
73428;SDS011;61643;49.564;17.412;2022-12-18T09:33:37;33.75;;;10.35;;
73428;SDS011;61643;49.564;17.412;2022-12-18T09:38:29;28.20;;;8.60;;
73428;SDS011;61643;49.564;17.412;2022-12-18T09:40:57;29.13;;;8.80;;
73428;SDS011;61643;49.564;17.412;2022-12-18T09:43:30;24.50;;;7.53;;
73428;SDS011;61643;49.564;17.412;2022-12-18T09:46:03;29.45;;;8.43;;
73428;SDS011;61643;49.564;17.412;2022-12-18T09:48:36;33.17;;;10.45;;
73428;SDS011;61643;49.564;17.412;2022-12-18T09:51:13;28.13;;;9.48;;
73428;SDS011;61643;49.564;17.412;2022-12-18T09:53:44;22.05;;;7.20;;
73428;SDS011;61643;49.564;17.412;2022-12-18T09:56:18;27.85;;;9.57;;
73428;SDS011;61643;49.564;17.412;2022-12-18T09:58:49;22.00;;;7.00;;
73428;SDS011;61643;49.564;17.412;2022-12-18T10:01:21;29.75;;;8.60;;
73428;SDS011;61643;49.564;17.412;2022-12-18T10:03:48;23.25;;;8.07;;
73428;SDS011;61643;49.564;17.412;2022-12-18T10:06:15;22.23;;;7.50;;
73428;SDS011;61643;49.564;17.412;2022-12-18T10:28:06;48.97;;;18.60;;
73428;SDS011;61643;49.564;17.412;2022-12-18T10:30:35;37.42;;;10.35;;
73428;SDS011;61643;49.564;17.412;2022-12-18T10:33:03;27.60;;;8.98;;
73428;SDS011;61643;49.564;17.412;2022-12-18T10:35:29;27.33;;;9.77;;
73428;SDS011;61643;49.564;17.412;2022-12-18T10:38:01;37.07;;;11.53;;
73428;SDS011;61643;49.564;17.412;2022-12-18T10:40:31;33.58;;;10.90;;
73428;SDS011;61643;49.564;17.412;2022-12-18T10:43:04;34.80;;;11.38;;
73428;SDS011;61643;49.564;17.412;2022-12-18T10:45:29;27.25;;;9.18;;
73428;SDS011;61643;49.564;17.412;2022-12-18T10:47:55;32.13;;;9.87;;
73428;SDS011;61643;49.564;17.412;2022-12-18T10:52:59;28.15;;;9.15;;
73428;SDS011;61643;49.564;17.412;2022-12-18T10:55:31;26.85;;;9.25;;
73428;SDS011;61643;49.564;17.412;2022-12-18T11:03:43;32.47;;;10.65;;
73428;SDS011;61643;49.564;17.412;2022-12-18T11:06:15;36.78;;;11.50;;
73428;SDS011;61643;49.564;17.412;2022-12-18T11:08:43;33.10;;;10.02;;
73428;SDS011;61643;49.564;17.412;2022-12-18T11:11:22;32.92;;;9.88;;
73428;SDS011;61643;49.564;17.412;2022-12-18T11:16:24;31.45;;;10.55;;
73428;SDS011;61643;49.564;17.412;2022-12-18T11:18:51;30.67;;;10.60;;
73428;SDS011;61643;49.564;17.412;2022-12-18T11:21:16;31.88;;;10.15;;
73428;SDS011;61643;49.564;17.412;2022-12-18T11:23:49;33.20;;;9.80;;
73428;SDS011;61643;49.564;17.412;2022-12-18T11:26:17;32.10;;;10.27;;
73428;SDS011;61643;49.564;17.412;2022-12-18T11:28:44;31.80;;;9.75;;
73428;SDS011;61643;49.564;17.412;2022-12-18T11:31:29;36.08;;;10.88;;
73428;SDS011;61643;49.564;17.412;2022-12-18T11:34:04;35.97;;;11.68;;
73428;SDS011;61643;49.564;17.412;2022-12-18T11:39:51;36.35;;;10.55;;
73428;SDS011;61643;49.564;17.412;2022-12-18T11:42:09;32.53;;;10.63;;
73428;SDS011;61643;49.564;17.412;2022-12-18T11:44:55;39.47;;;11.57;;
73428;SDS011;61643;49.564;17.412;2022-12-18T11:50:16;41.00;;;12.38;;
73428;SDS011;61643;49.564;17.412;2022-12-18T11:52:44;38.28;;;11.93;;
73428;SDS011;61643;49.564;17.412;2022-12-18T11:57:52;40.58;;;11.90;;
73428;SDS011;61643;49.564;17.412;2022-12-18T12:00:36;39.40;;;12.20;;
73428;SDS011;61643;49.564;17.412;2022-12-18T12:03:35;44.28;;;12.55;;
73428;SDS011;61643;49.564;17.412;2022-12-18T12:20:20;39.38;;;13.38;;
73428;SDS011;61643;49.564;17.412;2022-12-18T12:25:31;35.70;;;11.18;;
73428;SDS011;61643;49.564;17.412;2022-12-18T12:39:03;39.83;;;13.77;;
73428;SDS011;61643;49.564;17.412;2022-12-18T12:41:33;39.20;;;13.60;;
73428;SDS011;61643;49.564;17.412;2022-12-18T12:44:27;61.15;;;17.83;;
73428;SDS011;61643;49.564;17.412;2022-12-18T12:47:00;53.08;;;16.60;;
73428;SDS011;61643;49.564;17.412;2022-12-18T12:49:36;60.85;;;17.60;;
73428;SDS011;61643;49.564;17.412;2022-12-18T12:52:17;87.38;;;25.13;;
73428;SDS011;61643;49.564;17.412;2022-12-18T12:55:07;90.00;;;24.63;;
73428;SDS011;61643;49.564;17.412;2022-12-18T12:57:41;102.47;;;27.92;;
73428;SDS011;61643;49.564;17.412;2022-12-18T13:00:34;41.45;;;12.52;;
73428;SDS011;61643;49.564;17.412;2022-12-18T13:03:17;43.15;;;12.00;;
73428;SDS011;61643;49.564;17.412;2022-12-18T13:06:32;39.00;;;12.43;;
73428;SDS011;61643;49.564;17.412;2022-12-18T13:09:07;38.53;;;11.30;;
73428;SDS011;61643;49.564;17.412;2022-12-18T13:14:30;41.58;;;13.05;;
73428;SDS011;61643;49.564;17.412;2022-12-18T13:19:40;36.25;;;11.93;;
73428;SDS011;61643;49.564;17.412;2022-12-18T13:22:19;41.70;;;12.15;;
73428;SDS011;61643;49.564;17.412;2022-12-18T13:24:55;36.60;;;11.40;;
73428;SDS011;61643;49.564;17.412;2022-12-18T13:35:39;43.67;;;13.80;;
73428;SDS011;61643;49.564;17.412;2022-12-18T13:38:20;46.40;;;15.88;;
73428;SDS011;61643;49.564;17.412;2022-12-18T13:45:47;47.30;;;14.98;;
73428;SDS011;61643;49.564;17.412;2022-12-18T13:48:24;43.28;;;14.43;;
73428;SDS011;61643;49.564;17.412;2022-12-18T13:50:52;37.13;;;12.50;;
73428;SDS011;61643;49.564;17.412;2022-12-18T13:53:34;33.17;;;10.85;;
73428;SDS011;61643;49.564;17.412;2022-12-18T13:56:04;42.53;;;11.50;;
73428;SDS011;61643;49.564;17.412;2022-12-18T13:58:30;41.20;;;12.90;;
73428;SDS011;61643;49.564;17.412;2022-12-18T14:00:56;34.63;;;10.57;;
73428;SDS011;61643;49.564;17.412;2022-12-18T14:03:25;34.58;;;12.00;;
73428;SDS011;61643;49.564;17.412;2022-12-18T14:05:53;31.27;;;11.45;;
73428;SDS011;61643;49.564;17.412;2022-12-18T14:08:21;33.47;;;11.52;;
73428;SDS011;61643;49.564;17.412;2022-12-18T14:10:48;32.80;;;11.20;;
73428;SDS011;61643;49.564;17.412;2022-12-18T14:13:29;29.92;;;10.40;;
73428;SDS011;61643;49.564;17.412;2022-12-18T14:15:57;32.17;;;11.43;;
73428;SDS011;61643;49.564;17.412;2022-12-18T14:18:26;40.35;;;12.85;;
73428;SDS011;61643;49.564;17.412;2022-12-18T14:20:56;44.45;;;12.35;;
73428;SDS011;61643;49.564;17.412;2022-12-18T14:23:25;35.88;;;11.95;;
73428;SDS011;61643;49.564;17.412;2022-12-18T14:25:52;39.85;;;12.05;;
73428;SDS011;61643;49.564;17.412;2022-12-18T14:28:17;41.63;;;13.10;;
73428;SDS011;61643;49.564;17.412;2022-12-18T14:30:44;40.20;;;13.80;;
73428;SDS011;61643;49.564;17.412;2022-12-18T14:33:12;39.20;;;12.65;;
73428;SDS011;61643;49.564;17.412;2022-12-18T14:36:02;40.08;;;12.90;;
73428;SDS011;61643;49.564;17.412;2022-12-18T14:38:36;47.90;;;13.63;;
73428;SDS011;61643;49.564;17.412;2022-12-18T14:41:04;45.90;;;14.50;;
73428;SDS011;61643;49.564;17.412;2022-12-18T14:43:32;50.70;;;14.48;;
73428;SDS011;61643;49.564;17.412;2022-12-18T14:45:59;49.08;;;14.15;;
73428;SDS011;61643;49.564;17.412;2022-12-18T14:50:58;44.75;;;14.82;;
73428;SDS011;61643;49.564;17.412;2022-12-18T14:53:32;54.83;;;15.82;;
73428;SDS011;61643;49.564;17.412;2022-12-18T14:55:57;55.13;;;17.52;;
73428;SDS011;61643;49.564;17.412;2022-12-18T14:58:23;62.87;;;18.77;;
73428;SDS011;61643;49.564;17.412;2022-12-18T15:00:48;71.25;;;22.23;;
73428;SDS011;61643;49.564;17.412;2022-12-18T15:03:17;64.50;;;20.77;;
73428;SDS011;61643;49.564;17.412;2022-12-18T15:05:44;60.95;;;20.25;;
73428;SDS011;61643;49.564;17.412;2022-12-18T15:08:24;59.70;;;20.13;;
73428;SDS011;61643;49.564;17.412;2022-12-18T15:10:54;94.70;;;28.33;;
73428;SDS011;61643;49.564;17.412;2022-12-18T15:13:23;71.33;;;23.50;;
73428;SDS011;61643;49.564;17.412;2022-12-18T15:15:49;44.35;;;17.65;;
73428;SDS011;61643;49.564;17.412;2022-12-18T15:18:17;62.20;;;19.63;;
73428;SDS011;61643;49.564;17.412;2022-12-18T15:20:52;72.97;;;23.45;;
73428;SDS011;61643;49.564;17.412;2022-12-18T15:25:54;83.07;;;26.17;;
73428;SDS011;61643;49.564;17.412;2022-12-18T15:28:25;83.00;;;24.63;;
73428;SDS011;61643;49.564;17.412;2022-12-18T15:31:02;72.53;;;24.42;;
73428;SDS011;61643;49.564;17.412;2022-12-18T15:33:35;74.97;;;24.35;;
73428;SDS011;61643;49.564;17.412;2022-12-18T15:36:08;86.47;;;27.15;;
73428;SDS011;61643;49.564;17.412;2022-12-18T15:38:35;75.38;;;25.88;;
73428;SDS011;61643;49.564;17.412;2022-12-18T15:41:00;67.73;;;22.07;;
73428;SDS011;61643;49.564;17.412;2022-12-18T15:43:30;80.45;;;24.30;;
73428;SDS011;61643;49.564;17.412;2022-12-18T15:46:43;105.38;;;31.50;;
73428;SDS011;61643;49.564;17.412;2022-12-18T15:48:52;107.15;;;31.55;;
73428;SDS011;61643;49.564;17.412;2022-12-18T15:51:20;96.68;;;28.00;;
73428;SDS011;61643;49.564;17.412;2022-12-18T15:53:54;101.07;;;31.52;;
73428;SDS011;61643;49.564;17.412;2022-12-18T15:56:23;107.78;;;30.90;;
73428;SDS011;61643;49.564;17.412;2022-12-18T15:59:19;85.82;;;26.60;;
73428;SDS011;61643;49.564;17.412;2022-12-18T16:01:46;71.82;;;25.70;;
73428;SDS011;61643;49.564;17.412;2022-12-18T16:04:13;71.15;;;24.73;;
73428;SDS011;61643;49.564;17.412;2022-12-18T16:06:41;83.07;;;25.40;;
73428;SDS011;61643;49.564;17.412;2022-12-18T16:09:07;79.05;;;25.08;;
73428;SDS011;61643;49.564;17.412;2022-12-18T16:11:33;84.85;;;26.60;;
73428;SDS011;61643;49.564;17.412;2022-12-18T16:14:20;89.57;;;27.13;;
73428;SDS011;61643;49.564;17.412;2022-12-18T16:16:51;78.60;;;25.20;;
73428;SDS011;61643;49.564;17.412;2022-12-18T16:19:19;92.40;;;29.80;;
73428;SDS011;61643;49.564;17.412;2022-12-18T16:21:46;83.97;;;26.80;;
73428;SDS011;61643;49.564;17.412;2022-12-18T16:24:16;66.18;;;21.95;;